createdAt,value
2019-01-06T00:02:22.976Z,1.90
2019-01-06T00:04:54.388Z,1.90
2019-01-06T00:07:41.999Z,1.90
2019-01-06T00:10:29.654Z,1.90
2019-01-06T00:13:04.154Z,1.90
2019-01-06T00:15:44.224Z,2.00
2019-01-06T00:18:31.996Z,2.00
2019-01-06T00:21:05.967Z,2.00
2019-01-06T00:23:37.624Z,2.00
2019-01-06T00:26:08.858Z,2.00
2019-01-06T00:28:42.576Z,2.00
2019-01-06T00:31:22.406Z,1.90
2019-01-06T00:33:53.598Z,1.90
2019-01-06T00:36:40.833Z,1.90
2019-01-06T00:39:12.085Z,1.90
2019-01-06T00:41:49.210Z,1.90
2019-01-06T00:44:23.287Z,1.90
2019-01-06T00:47:06.661Z,1.90
2019-01-06T00:49:46.642Z,1.90
2019-01-06T00:52:30.042Z,1.90
2019-01-06T00:55:13.450Z,1.90
2019-01-06T00:58:00.655Z,1.90
2019-01-06T01:00:31.925Z,1.90
2019-01-06T01:03:15.279Z,1.80
2019-01-06T01:05:58.323Z,1.80
2019-01-06T01:08:35.618Z,1.80
2019-01-06T01:11:09.529Z,1.80
2019-01-06T01:13:46.762Z,1.80
2019-01-06T01:16:18.004Z,1.80
2019-01-06T01:18:49.483Z,1.80
2019-01-06T01:21:23.687Z,1.80
2019-01-06T01:23:57.485Z,1.80
2019-01-06T01:26:31.164Z,1.80
2019-01-06T01:29:18.791Z,1.80
2019-01-06T01:31:55.952Z,1.80
2019-01-06T01:34:29.584Z,1.80
2019-01-06T01:37:09.645Z,1.90
2019-01-06T01:39:57.387Z,1.90
2019-01-06T01:42:34.246Z,1.90
2019-01-06T01:45:11.533Z,1.90
2019-01-06T01:47:57.532Z,1.90
2019-01-06T01:50:37.916Z,1.90
2019-01-06T01:53:15.027Z,1.90
2019-01-06T01:56:05.005Z,1.90
2019-01-06T01:58:52.740Z,1.90
2019-01-06T02:01:23.992Z,1.90
2019-01-06T02:03:57.663Z,1.90
2019-01-06T02:06:37.686Z,1.90
2019-01-06T02:09:23.731Z,1.90
2019-01-06T02:12:00.890Z,1.90
2019-01-06T02:14:34.981Z,1.90
2019-01-06T02:17:22.829Z,1.90
2019-01-06T02:20:03.382Z,1.90
2019-01-06T02:22:51.130Z,2.00
2019-01-06T02:25:38.669Z,2.00
2019-01-06T02:28:24.977Z,2.00
2019-01-06T02:31:02.151Z,2.00
2019-01-06T02:33:48.611Z,2.10
2019-01-06T02:36:32.145Z,2.10
2019-01-06T02:39:03.340Z,2.10
2019-01-06T02:41:48.366Z,2.10
2019-01-06T02:44:19.787Z,2.20
2019-01-06T02:46:53.399Z,2.10
2019-01-06T02:49:33.531Z,2.10
2019-01-06T02:52:04.718Z,2.10
2019-01-06T02:54:44.955Z,2.10
2019-01-06T02:57:33.290Z,2.10
2019-01-06T03:00:13.478Z,2.10
2019-01-06T03:02:53.294Z,2.10
2019-01-06T03:05:40.880Z,2.10
2019-01-06T03:08:21.054Z,2.10
2019-01-06T03:11:08.257Z,2.10
2019-01-06T03:13:39.792Z,2.10
2019-01-06T03:16:11.028Z,2.10
2019-01-06T03:18:57.578Z,2.10
2019-01-06T03:21:47.294Z,2.10
2019-01-06T03:24:30.749Z,2.10
2019-01-06T03:27:02.112Z,2.10
2019-01-06T03:29:39.919Z,2.10
2019-01-06T03:32:27.395Z,2.10
2019-01-06T03:35:13.954Z,2.00
2019-01-06T03:37:47.797Z,2.00
2019-01-06T03:40:31.003Z,2.00
2019-01-06T03:43:13.954Z,2.00
2019-01-06T03:45:54.135Z,2.00
2019-01-06T03:48:28.740Z,2.00
2019-01-06T03:51:05.735Z,2.00
2019-01-06T03:53:55.074Z,2.00
2019-01-06T03:56:36.782Z,2.10
2019-01-06T03:59:24.884Z,2.10
2019-01-06T04:02:01.905Z,2.00
2019-01-06T04:04:33.149Z,2.10
2019-01-06T04:07:09.968Z,2.00
2019-01-06T04:09:57.576Z,2.00
2019-01-06T04:12:34.862Z,2.00
2019-01-06T04:15:24.211Z,2.00
2019-01-06T04:17:55.458Z,2.00
2019-01-06T04:20:42.141Z,2.00
2019-01-06T04:23:22.343Z,2.00
2019-01-06T04:26:05.990Z,2.00
2019-01-06T04:28:39.869Z,2.00
2019-01-06T04:31:20.148Z,2.00
2019-01-06T04:33:57.149Z,2.00
2019-01-06T04:36:37.181Z,2.00
2019-01-06T04:39:08.957Z,2.00
2019-01-06T04:41:43.030Z,2.00
2019-01-06T04:44:16.813Z,2.00
2019-01-06T04:46:50.855Z,2.00
2019-01-06T04:49:30.993Z,2.00
2019-01-06T04:52:02.247Z,2.00
2019-01-06T04:54:50.507Z,2.00
2019-01-06T04:57:36.721Z,2.10
2019-01-06T05:00:15.302Z,2.00
2019-01-06T05:02:52.033Z,2.00
2019-01-06T05:05:30.021Z,2.00
2019-01-06T05:08:01.308Z,2.00
2019-01-06T05:10:45.093Z,2.00
2019-01-06T05:13:25.451Z,2.00
2019-01-06T05:15:56.900Z,2.00
2019-01-06T05:18:30.830Z,2.00
2019-01-06T05:21:13.972Z,2.10
2019-01-06T05:24:01.587Z,2.10
2019-01-06T05:26:49.519Z,2.10
2019-01-06T05:29:29.748Z,2.00
2019-01-06T05:32:01.106Z,2.10
2019-01-06T05:34:48.850Z,2.00
2019-01-06T05:37:20.149Z,2.10
2019-01-06T05:40:03.269Z,2.10
2019-01-06T05:42:50.970Z,2.10
2019-01-06T05:45:28.198Z,2.10
2019-01-06T05:47:59.512Z,2.10
2019-01-06T05:50:49.394Z,2.10
2019-01-06T05:53:20.626Z,2.10
2019-01-06T05:55:51.935Z,2.10
2019-01-06T05:58:32.830Z,2.10
2019-01-06T06:01:06.605Z,2.10
2019-01-06T06:03:56.117Z,2.00
2019-01-06T06:06:27.348Z,2.00
2019-01-06T06:09:16.928Z,2.00
2019-01-06T06:11:59.980Z,2.00
2019-01-06T06:14:37.088Z,2.00
2019-01-06T06:17:08.514Z,2.00
2019-01-06T06:19:42.742Z,2.00
2019-01-06T06:22:16.882Z,2.00
2019-01-06T06:24:53.714Z,2.00
2019-01-06T06:27:33.932Z,2.00
2019-01-06T06:30:08.255Z,2.00
2019-01-06T06:32:55.811Z,2.00
2019-01-06T06:35:43.497Z,2.00
2019-01-06T06:38:31.040Z,2.00
2019-01-06T06:41:08.086Z,2.00
2019-01-06T06:43:45.049Z,2.00
2019-01-06T06:46:31.073Z,2.00
2019-01-06T06:49:20.097Z,2.00
2019-01-06T06:51:56.982Z,2.00
2019-01-06T06:54:30.838Z,2.00
2019-01-06T06:57:55.384Z,2.00
2019-01-06T07:00:47.122Z,2.00
2019-01-06T07:03:47.002Z,2.10
2019-01-06T07:06:30.434Z,2.10
2019-01-06T07:09:04.401Z,2.10
2019-01-06T07:11:52.369Z,2.10
2019-01-06T07:14:42.638Z,2.10
2019-01-06T07:17:59.601Z,2.10
2019-01-06T07:20:47.388Z,2.10
2019-01-06T07:23:25.115Z,2.10
2019-01-06T07:26:12.800Z,2.10
2019-01-06T07:28:53.338Z,2.10
2019-01-06T07:31:34.123Z,2.20
2019-01-06T07:34:20.614Z,2.20
2019-01-06T07:37:08.461Z,2.20
2019-01-06T07:39:55.279Z,2.20
2019-01-06T07:42:26.541Z,2.20
2019-01-06T07:45:00.657Z,2.20
2019-01-06T07:47:35.103Z,2.20
2019-01-06T07:50:06.537Z,2.20
2019-01-06T07:52:49.748Z,2.20
2019-01-06T07:55:30.337Z,2.20
2019-01-06T07:58:04.152Z,2.20
2019-01-06T08:00:53.512Z,2.20
2019-01-06T08:03:33.664Z,2.20
2019-01-06T08:06:21.284Z,2.20
2019-01-06T08:08:55.589Z,2.20
2019-01-06T08:11:44.617Z,2.30
2019-01-06T08:14:31.251Z,2.30
2019-01-06T08:17:17.352Z,2.30
2019-01-06T08:20:06.646Z,2.30
2019-01-06T08:22:40.873Z,2.30
2019-01-06T08:25:14.983Z,2.30
2019-01-06T08:28:02.492Z,2.30
2019-01-06T08:30:33.739Z,2.30
2019-01-06T08:33:11.121Z,2.30
2019-01-06T08:35:51.513Z,2.30
2019-01-06T08:38:35.529Z,2.30
2019-01-06T08:41:06.754Z,2.30
2019-01-06T08:43:40.956Z,2.30
2019-01-06T08:46:17.801Z,2.30
2019-01-06T08:48:51.932Z,2.30
2019-01-06T08:51:39.292Z,2.40
2019-01-06T08:54:19.545Z,2.40
2019-01-06T08:56:56.591Z,2.50
2019-01-06T08:59:34.499Z,2.70
2019-01-06T09:02:17.616Z,2.60
2019-01-06T09:04:48.961Z,2.60
2019-01-06T09:07:22.975Z,2.60
2019-01-06T09:09:54.529Z,2.70
2019-01-06T09:12:31.581Z,2.70
2019-01-06T09:15:11.914Z,2.70
2019-01-06T09:17:43.325Z,2.70
2019-01-06T09:20:26.542Z,2.70
2019-01-06T09:23:03.355Z,2.60
2019-01-06T09:25:52.727Z,2.70
2019-01-06T09:28:40.209Z,2.70
2019-01-06T09:31:17.080Z,2.70
2019-01-06T09:33:56.812Z,2.70
2019-01-06T09:36:28.350Z,2.70
2019-01-06T09:39:05.331Z,2.70
2019-01-06T09:41:39.128Z,2.80
2019-01-06T09:44:10.351Z,2.80
2019-01-06T09:46:57.681Z,2.70
2019-01-06T09:49:28.925Z,2.80
2019-01-06T09:52:14.822Z,2.80
2019-01-06T09:54:55.009Z,2.80
2019-01-06T09:57:29.203Z,2.80
2019-01-06T10:00:02.992Z,2.90
2019-01-06T10:02:42.960Z,2.90
2019-01-06T10:05:23.155Z,2.90
2019-01-06T10:08:10.746Z,2.90
2019-01-06T10:10:51.281Z,2.90
2019-01-06T10:13:28.270Z,2.90
2019-01-06T10:16:14.401Z,2.80
2019-01-06T10:18:48.311Z,2.90
2019-01-06T10:21:35.381Z,2.80
2019-01-06T10:24:12.222Z,2.90
2019-01-06T10:26:46.111Z,3.00
2019-01-06T10:29:26.226Z,3.00
2019-01-06T10:32:00.175Z,2.90
2019-01-06T10:34:43.323Z,2.90
2019-01-06T10:37:20.518Z,2.90
2019-01-06T10:39:51.734Z,2.90
2019-01-06T10:42:29.469Z,2.90
2019-01-06T10:45:17.006Z,2.90
2019-01-06T10:47:50.958Z,2.90
2019-01-06T10:50:24.757Z,2.80
2019-01-06T10:53:11.907Z,2.80
2019-01-06T10:55:46.188Z,2.80
2019-01-06T10:58:17.678Z,2.80
2019-01-06T11:01:05.121Z,3.80
2019-01-06T11:03:39.519Z,2.80
2019-01-06T11:06:16.363Z,2.80
2019-01-06T11:08:47.611Z,2.80
2019-01-06T11:11:21.470Z,2.90
2019-01-06T11:14:07.577Z,2.90
2019-01-06T11:16:54.989Z,2.80
2019-01-06T11:19:42.283Z,2.80
2019-01-06T11:22:13.586Z,2.90
2019-01-06T11:24:53.497Z,2.90
2019-01-06T11:27:33.517Z,2.90
2019-01-06T11:30:13.448Z,2.80
2019-01-06T11:32:50.415Z,2.90
2019-01-06T11:35:24.442Z,2.90
2019-01-06T11:38:07.642Z,2.90
2019-01-06T11:40:53.554Z,2.90
2019-01-06T11:43:27.573Z,2.80
2019-01-06T11:45:58.840Z,2.80
2019-01-06T11:48:45.810Z,2.80
2019-01-06T11:51:32.948Z,2.90
2019-01-06T11:54:19.069Z,2.90
2019-01-06T11:56:50.481Z,2.90
2019-01-06T11:59:33.369Z,2.90
2019-01-06T12:02:16.309Z,2.90
2019-01-06T12:05:08.662Z,2.90
2019-01-06T12:07:39.913Z,2.90
2019-01-06T12:10:27.189Z,2.80
2019-01-06T12:13:14.435Z,2.80
2019-01-06T12:15:54.474Z,2.80
2019-01-06T12:18:25.764Z,2.80
2019-01-06T12:20:59.706Z,2.80
2019-01-06T12:23:45.813Z,2.80
2019-01-06T12:26:32.993Z,2.80
2019-01-06T12:29:20.659Z,2.80
2019-01-06T12:31:54.770Z,2.80
2019-01-06T12:34:25.997Z,2.80
2019-01-06T12:36:59.785Z,2.80
2019-01-06T12:39:47.139Z,2.80
2019-01-06T12:42:21.305Z,2.80
2019-01-06T12:45:08.498Z,2.70
2019-01-06T12:47:55.951Z,2.70
2019-01-06T12:50:29.783Z,2.70
2019-01-06T12:53:03.600Z,2.70
2019-01-06T12:55:34.938Z,2.70
2019-01-06T12:58:15.017Z,2.70
2019-01-06T13:00:46.474Z,2.70
2019-01-06T13:03:32.592Z,2.70
2019-01-06T13:06:06.550Z,2.70
2019-01-06T13:08:53.916Z,2.70
2019-01-06T13:11:40.132Z,2.70
2019-01-06T13:14:11.602Z,2.70
2019-01-06T13:16:51.311Z,2.70
2019-01-06T13:19:38.597Z,2.70
2019-01-06T13:22:18.402Z,2.70
2019-01-06T13:25:05.616Z,2.70
2019-01-06T13:27:39.623Z,2.70
2019-01-06T13:30:17.958Z,2.70
2019-01-06T13:32:49.319Z,2.70
2019-01-06T13:35:36.421Z,2.60
2019-01-06T13:38:25.468Z,2.50
2019-01-06T13:41:02.857Z,2.40
2019-01-06T13:43:32.297Z,2.50
2019-01-06T13:46:06.174Z,2.30
2019-01-06T13:48:53.607Z,2.30
2019-01-06T13:51:24.991Z,2.20
2019-01-06T13:54:12.138Z,2.20
2019-01-06T13:56:52.667Z,2.30
2019-01-06T13:59:27.767Z,1.00
2019-01-06T14:02:16.845Z,2.30
2019-01-06T14:05:03.757Z,2.30
2019-01-06T14:07:40.696Z,2.40
2019-01-06T14:10:20.841Z,2.40
2019-01-06T14:12:57.946Z,2.50
2019-01-06T14:15:45.247Z,2.60
2019-01-06T14:18:32.358Z,2.60
2019-01-06T14:21:15.522Z,2.70
2019-01-06T14:23:46.770Z,2.80
2019-01-06T14:26:33.969Z,2.80
2019-01-06T14:29:13.854Z,2.80
2019-01-06T14:31:57.044Z,2.90
2019-01-06T14:34:30.854Z,2.90
2019-01-06T14:37:10.594Z,2.80
2019-01-06T14:39:41.886Z,2.90
2019-01-06T14:42:18.747Z,3.40
2019-01-06T14:45:06.085Z,2.90
2019-01-06T14:47:42.781Z,2.90
2019-01-06T14:50:19.495Z,2.90
2019-01-06T14:53:02.697Z,2.90
2019-01-06T14:55:42.741Z,2.80
2019-01-06T14:58:25.834Z,2.80
2019-01-06T15:00:57.149Z,2.80
2019-01-06T15:03:45.041Z,2.80
2019-01-06T15:06:32.513Z,2.80
2019-01-06T15:09:12.777Z,2.80
2019-01-06T15:11:59.934Z,2.80
2019-01-06T15:14:33.809Z,2.80
2019-01-06T15:17:07.649Z,2.90
2019-01-06T15:19:41.577Z,2.90
2019-01-06T15:22:28.662Z,2.90
2019-01-06T15:25:05.867Z,2.90
2019-01-06T15:27:48.946Z,2.80
2019-01-06T15:30:38.029Z,2.90
2019-01-06T15:33:14.737Z,2.90
2019-01-06T15:35:51.496Z,2.90
2019-01-06T15:38:38.518Z,2.90
2019-01-06T15:41:12.498Z,2.90
2019-01-06T15:43:59.804Z,2.90
2019-01-06T15:46:49.016Z,2.80
2019-01-06T15:49:20.326Z,2.70
2019-01-06T15:51:57.689Z,2.70
2019-01-06T15:54:43.631Z,2.70
2019-01-06T15:57:26.850Z,2.70
2019-01-06T15:59:58.071Z,2.70
2019-01-06T16:02:29.338Z,2.60
2019-01-06T16:05:06.614Z,2.60
2019-01-06T16:07:54.037Z,2.60
2019-01-06T16:10:41.759Z,2.60
2019-01-06T16:13:13.047Z,2.60
2019-01-06T16:16:00.484Z,2.60
2019-01-06T16:18:48.170Z,2.60
2019-01-06T16:21:29.030Z,2.60
2019-01-06T16:24:00.328Z,2.60
2019-01-06T16:26:34.800Z,2.70
2019-01-06T16:29:22.154Z,2.60
2019-01-06T16:32:05.232Z,2.60
2019-01-06T16:34:52.300Z,2.60
2019-01-06T16:37:40.258Z,2.60
2019-01-06T16:40:23.207Z,2.60
2019-01-06T16:42:56.967Z,2.70
2019-01-06T16:45:37.085Z,2.70
2019-01-06T16:48:16.814Z,2.70
2019-01-06T16:51:03.818Z,2.70
2019-01-06T16:53:43.988Z,2.70
2019-01-06T16:56:31.347Z,2.70
2019-01-06T16:59:05.471Z,2.70
2019-01-06T17:01:52.935Z,2.70
2019-01-06T17:04:41.435Z,2.70
2019-01-06T17:07:15.648Z,2.70
2019-01-06T17:09:50.556Z,2.70
2019-01-06T17:12:37.995Z,2.80
2019-01-06T17:15:18.144Z,2.70
2019-01-06T17:18:05.430Z,2.80
2019-01-06T17:20:37.177Z,2.80
2019-01-06T17:23:24.438Z,2.80
2019-01-06T17:26:04.833Z,2.80
2019-01-06T17:28:50.982Z,2.70
2019-01-06T17:31:22.199Z,2.80
2019-01-06T17:33:53.449Z,2.80
2019-01-06T17:36:43.114Z,2.80
2019-01-06T17:39:28.916Z,2.80
2019-01-06T17:42:16.259Z,2.80
2019-01-06T17:44:47.498Z,2.50
2019-01-06T17:47:21.529Z,2.80
2019-01-06T17:49:55.554Z,2.80
2019-01-06T17:52:30.141Z,2.80
2019-01-06T17:55:07.076Z,2.80
2019-01-06T17:57:40.990Z,2.80
2019-01-06T18:00:12.721Z,2.80
2019-01-06T18:03:00.218Z,2.80
2019-01-06T18:05:47.568Z,2.80
2019-01-06T18:08:24.998Z,2.80
2019-01-06T18:11:10.783Z,2.80
2019-01-06T18:13:57.142Z,2.80
2019-01-06T18:16:31.010Z,2.80
2019-01-06T18:19:02.265Z,2.80
2019-01-06T18:21:42.406Z,2.80
2019-01-06T18:24:16.491Z,2.80
2019-01-06T18:26:56.733Z,2.80
2019-01-06T18:29:33.875Z,2.80
2019-01-06T18:32:05.110Z,2.80
2019-01-06T18:34:48.025Z,2.80
2019-01-06T18:37:34.119Z,2.80
2019-01-06T18:40:05.394Z,2.90
2019-01-06T18:42:39.215Z,2.90
2019-01-06T18:45:10.479Z,2.90
2019-01-06T18:47:42.310Z,3.80
2019-01-06T18:50:29.841Z,2.90
2019-01-06T18:53:17.250Z,2.90
2019-01-06T18:55:51.287Z,2.80
2019-01-06T18:58:28.422Z,2.80
2019-01-06T19:00:59.662Z,2.90
2019-01-06T19:03:32.792Z,2.90
2019-01-06T19:06:04.318Z,2.90
2019-01-06T19:08:38.114Z,2.90
2019-01-06T19:11:09.414Z,2.90
2019-01-06T19:13:43.587Z,2.90
2019-01-06T19:16:15.178Z,2.90
2019-01-06T19:19:02.577Z,2.90
2019-01-06T19:21:34.259Z,2.90
2019-01-06T19:24:05.498Z,2.90
2019-01-06T19:26:53.201Z,2.90
2019-01-06T19:29:31.169Z,2.90
2019-01-06T19:32:18.421Z,2.90
2019-01-06T19:34:53.173Z,2.90
2019-01-06T19:37:28.258Z,2.80
2019-01-06T19:40:02.247Z,2.80
2019-01-06T19:42:51.514Z,2.80
2019-01-06T19:45:22.760Z,2.80
2019-01-06T19:48:02.696Z,2.80
2019-01-06T19:50:42.777Z,2.80
2019-01-06T19:53:14.273Z,2.80
2019-01-06T19:55:57.458Z,2.80
2019-01-06T19:58:44.996Z,2.80
2019-01-06T20:01:25.194Z,2.80
2019-01-06T20:04:08.521Z,2.70
2019-01-06T20:06:45.354Z,2.70
2019-01-06T20:09:32.720Z,2.70
2019-01-06T20:12:12.993Z,2.60
2019-01-06T20:14:44.358Z,2.60
2019-01-06T20:17:17.102Z,2.60
2019-01-06T20:20:04.294Z,2.60
2019-01-06T20:22:51.513Z,3.70
2019-01-06T20:25:34.446Z,2.60
2019-01-06T20:28:21.821Z,2.60
2019-01-06T20:31:08.208Z,2.60
2019-01-06T20:33:39.512Z,2.60
2019-01-06T20:36:25.590Z,2.60
2019-01-06T20:39:12.997Z,2.60
2019-01-06T20:41:58.909Z,2.70
2019-01-06T20:44:32.208Z,2.70
2019-01-06T20:47:18.227Z,2.70
2019-01-06T20:49:52.187Z,2.70
2019-01-06T20:52:41.869Z,2.80
2019-01-06T20:55:17.052Z,2.80
2019-01-06T20:58:04.535Z,2.80
2019-01-06T21:00:47.699Z,2.70
2019-01-06T21:03:21.951Z,2.80
2019-01-06T21:05:53.274Z,2.80
2019-01-06T21:08:37.505Z,2.70
2019-01-06T21:11:08.939Z,2.70
2019-01-06T21:13:43.010Z,2.60
2019-01-06T21:16:30.375Z,2.60
2019-01-06T21:19:18.051Z,2.60
2019-01-06T21:22:05.872Z,2.50
2019-01-06T21:24:40.141Z,2.50
2019-01-06T21:27:26.437Z,2.50
2019-01-06T21:30:00.475Z,2.50
2019-01-06T21:32:31.741Z,2.50
2019-01-06T21:35:09.521Z,2.50
2019-01-06T21:37:52.758Z,2.50
2019-01-06T21:40:30.803Z,2.50
2019-01-06T21:43:14.071Z,2.50
2019-01-06T21:45:54.350Z,2.50
2019-01-06T21:48:37.869Z,2.50
2019-01-06T21:51:15.135Z,2.50
2019-01-06T21:54:03.616Z,2.50
2019-01-06T21:56:37.322Z,2.50
2019-01-06T21:59:08.589Z,2.50
2019-01-06T22:01:39.891Z,2.50
2019-01-06T22:04:16.853Z,2.40
2019-01-06T22:06:48.324Z,2.40
2019-01-06T22:09:19.492Z,2.40
2019-01-06T22:11:50.865Z,2.40
2019-01-06T22:14:27.706Z,2.40
2019-01-06T22:17:17.143Z,2.40
2019-01-06T22:19:51.058Z,2.40
2019-01-06T22:22:31.247Z,2.40
2019-01-06T22:25:08.548Z,2.40
2019-01-06T22:27:54.769Z,2.40
2019-01-06T22:30:35.045Z,2.50
2019-01-06T22:33:22.561Z,2.50
2019-01-06T22:36:02.980Z,2.40
2019-01-06T22:38:34.739Z,2.40
2019-01-06T22:41:06.011Z,2.40
2019-01-06T22:43:49.421Z,2.40
2019-01-06T22:46:29.355Z,2.40
2019-01-06T22:49:15.925Z,2.40
2019-01-06T22:51:56.307Z,2.40
2019-01-06T22:54:39.979Z,2.40
2019-01-06T22:57:26.361Z,2.40
2019-01-06T23:00:00.620Z,2.40
2019-01-06T23:02:34.596Z,2.40
2019-01-06T23:05:14.892Z,2.40
2019-01-06T23:07:46.530Z,2.40
2019-01-06T23:10:17.701Z,2.50
2019-01-06T23:13:05.109Z,2.50
2019-01-06T23:15:42.399Z,2.50
2019-01-06T23:18:28.483Z,2.50
2019-01-06T23:21:05.256Z,2.50
2019-01-06T23:23:54.621Z,2.50
2019-01-06T23:26:44.042Z,2.50
2019-01-06T23:29:24.225Z,2.50
2019-01-06T23:32:07.634Z,2.50
2019-01-06T23:34:50.121Z,2.50
2019-01-06T23:37:21.646Z,2.40
2019-01-06T23:39:55.388Z,2.40
2019-01-06T23:42:27.132Z,2.40
2019-01-06T23:45:14.405Z,2.40
2019-01-06T23:48:01.783Z,2.40
2019-01-06T23:50:35.903Z,2.40
2019-01-06T23:53:16.105Z,2.30
2019-01-06T23:56:04.218Z,2.30
2019-01-06T23:58:38.309Z,2.30
